Date,TemperatureHighF,TemperatureAvgF,TemperatureLowF,DewpointHighF,DewpointAvgF,DewpointLowF,HumidityHigh,HumidityAvg,HumidityLow,PressureMaxIn,PressureMinIn,WindSpeedMaxMPH,WindSpeedAvgMPH,GustSpeedMaxMPH,PrecipitationSumIn
2013-3-1,35.8,33.6,31.0,32.2,30.8,27.3,93,89,82,30.05,29.98,8,2,8,0.03
2013-3-2,31.0,28.3,26.6,27.3,22.0,19.4,86,77,69,30.15,30.04,11,3,11,0.00
2013-3-3,33.7,27.8,22.7,22.5,19.0,14.5,86,70,47,30.17,30.11,10,2,10,0.00
2013-3-4,37.0,24.4,20.8,19.2,17.6,16.7,86,76,46,30.23,30.18,8,1,8,0.00
2013-3-5,46.0,38.3,27.9,44.9,33.4,23.3,96,84,48,29.99,29.59,13,5,31,0.65
2013-3-6,30.9,29.6,27.9,27.0,25.5,23.9,90,84,80,30.34,29.80,10,6,22,0.00
2013-3-7,34.4,32.2,30.0,27.2,25.0,22.3,86,75,63,30.44,30.33,3,1,6,0.01
2013-3-8,45.1,37.3,28.8,27.8,25.1,21.3,78,62,47,30.51,30.37,5,2,10,0.00
2013-3-9,63.2,49.1,32.8,32.4,27.1,23.3,73,45,24,30.37,30.09,5,2,11,0.00
2013-3-10,69.1,60.3,51.6,30.8,29.2,26.9,42,31,21,30.09,29.87,6,3,16,0.00
2013-3-11,62.1,48.4,38.0,51.9,40.1,29.9,94,76,30,29.93,29.68,12,4,20,0.81
2013-3-12,47.0,39.0,34.4,31.0,27.9,24.5,79,65,46,30.12,29.93,13,4,13,0.00
2013-3-13,37.3,31.8,26.6,29.0,20.0,11.1,84,62,43,30.41,30.09,18,6,18,0.00
2013-3-14,26.0,25.4,24.7,18.0,17.7,17.5,75,72,71,30.42,30.41,3,1,13,0.00
2013-3-15,59.5,48.8,32.2,39.8,34.5,25.8,78,59,44,30.25,29.81,6,1,13,0.00
2013-3-16,69.6,59.7,43.6,47.1,43.9,38.5,82,57,41,29.99,29.71,17,6,17,0.01
2013-3-17,42.6,36.4,33.8,38.5,33.5,31.2,96,89,81,30.11,29.94,17,4,17,0.73
2013-3-18,56.0,44.3,35.3,52.3,41.1,31.1,97,89,69,29.94,29.70,16,5,16,1.53
2013-3-19,47.0,39.4,33.8,32.3,21.1,4.7,86,53,18,30.19,29.93,17,5,17,0.00
2013-3-20,46.1,34.9,24.2,19.6,14.7,6.9,58,44,27,30.18,29.99,21,5,12,0.00
2013-3-21,24.4,23.1,22.1,11.4,10.6,10.1,61,58,56,30.07,30.06,3,0,0,0.00
2013-3-22,43.1,34.4,19.5,16.6,13.4,10.4,72,44,27,30.16,30.06,6,1,0,0.00
2013-3-23,52.2,43.2,37.0,26.8,20.7,15.8,56,41,27,30.08,29.84,9,2,0,0.00
2013-3-24,42.2,37.9,33.8,37.9,30.6,20.5,95,78,42,29.85,29.41,10,3,0,1.39
2013-3-25,34.7,31.6,29.7,31.4,28.1,24.9,91,87,77,30.03,29.53,14,7,0,0.03
2013-3-26,39.5,33.4,31.2,31.0,27.6,23.9,90,80,59,30.32,30.03,14,4,0,0.04
2013-3-27,42.1,35.9,28.4,25.8,22.2,19.4,76,58,43,30.40,30.31,11,2,0,0.00
2013-3-28,48.9,37.8,26.0,26.0,22.6,19.7,84,56,35,30.42,30.34,8,1,0,0.00
2013-3-29,54.5,42.7,32.1,37.9,28.5,23.0,84,59,30,30.37,30.26,9,1,0,0.00
2013-3-30,60.1,46.7,32.2,39.8,34.7,28.7,95,67,32,30.27,29.95,8,1,0,0.00
2013-3-31,58.0,50.5,46.7,47.4,43.6,37.7,95,79,53,29.95,29.83,10,2,0,0.17